West River, Maryland
Current Conditions -  °F | °C
As of 7:54 AM on Thursday 23 Oct 2014 (Local Time) from KNAK Reporting Station
Overcast Overcast  
Wind Chill: 54°   Ceiling: 4700
Heat Index: 54°   Visibility: 10mi
Dew Point: 44°   Wind: 10mph
Humidity: 69%   Direction: 300°WNW
Pressure: 29.85"   Gusts: NA
Location:  38.85°N, 76.6°W
Report Text: KNAK 231154Z AUTO 30009KT 10SM OVC047 12/07 A2985 RMK AO2 SLP110 70037 T01220067 10122 20122 51005
Loading
Personal Weather Stations






























Interactive Weather Map
Tropical Storm Tracking
New forecast layout! Learn more

10-Day Weather Forecast

Advertisements
Track Severe Weather on mobile